Time;durP1;ratioP1;P1;durP2;ratioP2;P2;SDS_P1;SDS_P2;PMS_P1;PMS_P2;Temp;Humidity;BMP_temperature;BMP_pressure;BME280_temperature;BME280_humidity;BME280_pressure;Samples;Min_cycle;Max_cycle;Signal;HPM_P1;HPM_P2
2023/09/14 04:01:30;;;;;;;1.07;0.97;;;14.00;97.30;;;;;;5546123;23;20503;-85
2023/09/14 04:03:55;;;;;;;2.60;1.77;;;14.00;97.30;;;;;;4998440;28;20511;-84
2023/09/14 04:06:21;;;;;;;2.97;1.47;;;14.00;97.30;;;;;;4997612;28;20281;-86
2023/09/14 04:08:46;;;;;;;1.57;1.47;;;14.00;97.30;;;;;;4989181;28;20605;-84
2023/09/14 04:11:12;;;;;;;1.00;0.90;;;14.00;97.30;;;;;;5004800;28;20239;-84
2023/09/14 04:13:39;;;;;;;1.23;1.13;;;14.00;97.30;;;;;;5034930;23;20368;-68
2023/09/14 04:16:05;;;;;;;2.33;1.63;;;14.10;97.30;;;;;;4990452;28;20245;-68
2023/09/14 04:18:35;;;;;;;1.83;1.73;;;14.10;97.30;;;;;;4982357;28;20967;-68
2023/09/14 04:21:02;;;;;;;1.53;1.27;;;14.00;97.30;;;;;;4998288;28;20436;-68
2023/09/14 04:23:28;;;;;;;1.43;1.37;;;14.10;97.30;;;;;;4998285;28;20449;-69
2023/09/14 04:25:53;;;;;;;2.63;2.43;;;14.10;97.30;;;;;;5005496;28;20443;-68
2023/09/14 04:28:21;;;;;;;1.93;1.40;;;14.10;97.30;;;;;;4993540;28;20220;-68
2023/09/14 04:30:49;;;;;;;4.30;2.20;;;14.10;97.30;;;;;;4996062;28;20201;-68
2023/09/14 04:33:16;;;;;;;2.90;1.60;;;14.10;97.30;;;;;;4996699;28;20524;-69
2023/09/14 04:35:42;;;;;;;2.27;1.70;;;14.10;97.30;;;;;;4993526;28;20417;-68
2023/09/14 04:38:08;;;;;;;1.37;1.30;;;14.10;97.30;;;;;;5005630;28;20456;-69
2023/09/14 04:40:37;;;;;;;3.63;2.60;;;14.10;97.30;;;;;;5008590;28;20440;-69
2023/09/14 04:43:03;;;;;;;1.00;0.90;;;14.00;97.30;;;;;;4993820;28;20535;-68
2023/09/14 04:45:28;;;;;;;7.70;2.07;;;14.00;97.30;;;;;;4990075;28;20916;-68
2023/09/14 04:47:54;;;;;;;1.23;1.13;;;14.00;97.30;;;;;;4989654;28;20592;-68
2023/09/14 04:50:19;;;;;;;9.63;2.10;;;14.00;97.30;;;;;;4997837;28;20630;-68
2023/09/14 04:52:45;;;;;;;1.67;1.57;;;14.00;97.30;;;;;;5003766;28;20629;-68
2023/09/14 04:55:11;;;;;;;2.50;1.63;;;14.00;97.30;;;;;;4992213;28;20178;-68
2023/09/14 04:57:36;;;;;;;1.10;1.10;;;14.00;97.30;;;;;;4988434;28;20186;-68
2023/09/14 05:00:04;;;;;;;1.17;1.17;;;14.00;97.30;;;;;;4988363;28;20198;-68
2023/09/14 05:02:30;;;;;;;2.10;1.57;;;14.00;97.30;;;;;;4987044;28;20559;-68
2023/09/14 05:04:55;;;;;;;1.00;0.90;;;14.00;97.30;;;;;;4987811;28;20718;-68
2023/09/14 05:07:21;;;;;;;5.40;1.53;;;14.00;97.30;;;;;;5004570;28;20220;-69
2023/09/14 05:09:46;;;;;;;1.30;1.20;;;14.00;97.30;;;;;;5009088;28;20548;-68
2023/09/14 05:12:13;;;;;;;1.80;1.70;;;14.00;97.30;;;;;;5008024;28;20211;-68
2023/09/14 05:14:39;;;;;;;1.77;1.67;;;14.00;97.30;;;;;;5000769;28;20233;-68
2023/09/14 05:17:05;;;;;;;1.33;1.23;;;14.00;97.30;;;;;;5007772;28;20991;-68
2023/09/14 05:19:30;;;;;;;4.60;2.03;;;14.00;97.30;;;;;;4997888;28;20186;-68
2023/09/14 05:21:56;;;;;;;1.47;1.37;;;14.00;97.30;;;;;;4988065;28;20658;-69
2023/09/14 05:24:21;;;;;;;1.53;1.40;;;14.00;97.30;;;;;;4988225;28;20200;-69
2023/09/14 05:26:48;;;;;;;2.47;2.17;;;14.00;97.30;;;;;;4993654;28;20280;-67
2023/09/14 05:29:14;;;;;;;1.50;1.40;;;14.00;97.30;;;;;;4992576;28;20796;-68
2023/09/14 05:31:40;;;;;;;1.73;1.63;;;13.90;97.30;;;;;;4988543;28;20528;-69
2023/09/14 05:34:06;;;;;;;6.83;1.53;;;13.90;97.30;;;;;;4988124;28;20609;-69
2023/09/14 05:36:32;;;;;;;2.07;1.60;;;13.90;97.30;;;;;;4990213;28;20212;-68
2023/09/14 05:38:57;;;;;;;1.23;1.13;;;13.90;97.30;;;;;;4989775;28;20425;-68
2023/09/14 05:41:23;;;;;;;1.20;1.20;;;13.80;97.30;;;;;;4999806;28;20206;-69
2023/09/14 05:43:48;;;;;;;1.00;0.90;;;13.80;97.30;;;;;;5004184;28;20198;-68
2023/09/14 05:46:14;;;;;;;1.00;0.90;;;13.80;97.30;;;;;;4989215;28;20197;-68
2023/09/14 05:48:39;;;;;;;1.53;1.53;;;13.70;97.30;;;;;;5000896;28;20216;-68
2023/09/14 05:51:05;;;;;;;0.90;0.80;;;13.70;97.30;;;;;;5000347;28;20198;-69
2023/09/14 05:53:30;;;;;;;1.47;1.30;;;13.70;97.30;;;;;;4988684;28;20190;-69
2023/09/14 05:55:56;;;;;;;1.43;1.20;;;13.70;97.30;;;;;;4996639;28;20178;-69
2023/09/14 05:58:22;;;;;;;1.80;1.40;;;13.70;97.30;;;;;;4997870;28;20181;-69
2023/09/14 06:00:47;;;;;;;2.50;1.73;;;13.70;97.30;;;;;;5003187;28;20215;-68
2023/09/14 06:03:13;;;;;;;1.40;1.30;;;13.70;97.30;;;;;;4999308;28;20190;-68
2023/09/14 06:05:39;;;;;;;1.20;1.10;;;13.60;97.30;;;;;;4989257;28;20257;-68
2023/09/14 06:08:05;;;;;;;1.30;1.20;;;13.60;97.30;;;;;;4997555;28;20556;-69
2023/09/14 06:10:30;;;;;;;2.17;1.60;;;13.60;97.30;;;;;;4999381;28;20751;-69
2023/09/14 06:12:56;;;;;;;3.40;1.43;;;13.60;97.30;;;;;;5000473;28;20173;-68
2023/09/14 06:15:23;;;;;;;1.10;1.10;;;13.60;97.30;;;;;;4989781;28;20711;-68
2023/09/14 06:17:48;;;;;;;1.63;1.30;;;13.60;97.30;;;;;;4997335;28;20733;-68
2023/09/14 06:20:14;;;;;;;7.70;1.77;;;13.60;97.30;;;;;;4988365;28;20452;-68
2023/09/14 06:22:40;;;;;;;2.60;1.83;;;13.60;97.30;;;;;;5004828;28;20264;-68
2023/09/14 06:25:05;;;;;;;5.07;3.83;;;13.70;97.30;;;;;;5004632;28;20290;-68
2023/09/14 06:27:31;;;;;;;7.07;2.00;;;13.70;97.30;;;;;;4989670;28;20832;-69
2023/09/14 06:29:57;;;;;;;9.00;1.43;;;13.70;97.30;;;;;;4997156;28;20704;-68
2023/09/14 06:32:23;;;;;;;2.93;2.73;;;13.80;97.30;;;;;;4988984;28;20209;-69
2023/09/14 06:34:48;;;;;;;1.10;1.00;;;13.80;97.30;;;;;;5001001;28;20628;-68
2023/09/14 06:37:14;;;;;;;1.20;1.10;;;13.80;97.30;;;;;;5000531;28;20432;-69
2023/09/14 06:39:40;;;;;;;1.80;1.70;;;13.80;97.30;;;;;;5000235;28;20182;-68
2023/09/14 06:42:06;;;;;;;1.33;1.23;;;13.80;97.30;;;;;;5001719;28;20209;-68
2023/09/14 06:44:32;;;;;;;4.30;1.63;;;13.90;97.30;;;;;;4995868;28;20185;-69
2023/09/14 06:46:57;;;;;;;7.70;1.23;;;13.90;97.30;;;;;;4993729;28;20943;-69
2023/09/14 06:49:23;;;;;;;2.53;2.30;;;13.90;97.30;;;;;;5008512;28;20215;-68
2023/09/14 06:51:48;;;;;;;1.20;1.10;;;13.90;97.30;;;;;;5004706;28;20212;-68
2023/09/14 06:54:14;;;;;;;1.03;1.03;;;14.00;97.30;;;;;;5008387;28;20263;-68
2023/09/14 06:56:40;;;;;;;1.17;1.07;;;14.00;97.30;;;;;;4999094;28;20185;-68
2023/09/14 06:59:06;;;;;;;1.67;1.10;;;13.90;97.30;;;;;;4993722;28;20656;-68
2023/09/14 07:01:31;;;;;;;1.93;1.77;;;13.90;97.30;;;;;;4995659;28;20445;-69
2023/09/14 07:03:57;;;;;;;1.30;1.20;;;13.90;97.30;;;;;;4988873;28;20197;-69
2023/09/14 07:06:22;;;;;;;2.03;1.27;;;13.90;97.30;;;;;;4987293;28;20220;-68
2023/09/14 07:08:48;;;;;;;1.27;1.00;;;14.00;97.30;;;;;;5001741;28;20283;-69
2023/09/14 07:11:14;;;;;;;4.00;2.90;;;14.00;97.30;;;;;;4998023;28;20220;-68
2023/09/14 07:13:40;;;;;;;1.93;1.23;;;14.00;97.30;;;;;;4998625;28;20479;-68
2023/09/14 07:16:06;;;;;;;1.00;0.90;;;14.00;97.30;;;;;;5007777;28;20416;-69
2023/09/14 07:18:33;;;;;;;1.27;1.17;;;14.00;97.30;;;;;;4990908;28;20186;-69
2023/09/14 07:21:02;;;;;;;1.83;1.77;;;14.00;97.30;;;;;;5005038;28;20201;-68
2023/09/14 07:23:28;;;;;;;1.20;1.10;;;14.00;97.30;;;;;;5002005;28;20439;-69
2023/09/14 07:25:54;;;;;;;5.03;1.73;;;14.00;97.30;;;;;;4996407;28;20461;-69
2023/09/14 07:28:20;;;;;;;2.20;1.77;;;14.10;97.30;;;;;;4995634;28;20523;-68
2023/09/14 07:30:48;;;;;;;8.13;1.33;;;14.10;97.30;;;;;;5003735;28;20189;-69
2023/09/14 07:33:14;;;;;;;2.67;2.50;;;14.10;97.30;;;;;;5003856;28;20470;-69
2023/09/14 07:35:40;;;;;;;1.67;1.43;;;14.20;97.30;;;;;;4990842;28;20909;-69
2023/09/14 07:38:14;;;;;;;1.77;1.30;;;14.20;97.30;;;;;;5000088;28;20432;-69
2023/09/14 07:40:41;;;;;;;1.20;1.10;;;14.20;97.30;;;;;;4999866;28;20287;-68
2023/09/14 07:43:07;;;;;;;1.40;1.30;;;14.30;97.30;;;;;;4992117;28;20428;-68
2023/09/14 07:45:33;;;;;;;1.37;1.30;;;14.20;97.30;;;;;;5002549;28;20420;-69
2023/09/14 07:48:01;;;;;;;5.90;2.27;;;14.20;97.30;;;;;;5005393;28;20263;-69
2023/09/14 07:50:26;;;;;;;1.27;1.17;;;14.20;97.30;;;;;;4999373;28;20827;-68
2023/09/14 07:52:52;;;;;;;3.43;1.93;;;14.30;97.30;;;;;;5003338;28;20417;-69
2023/09/14 07:55:18;;;;;;;1.53;1.40;;;14.20;97.30;;;;;;4995293;28;20170;-69
2023/09/14 07:57:43;;;;;;;2.07;1.93;;;14.20;97.30;;;;;;4999680;28;20623;-69
2023/09/14 08:00:09;;;;;;;7.60;2.03;;;14.30;97.30;;;;;;4996995;28;20193;-69
2023/09/14 08:02:35;;;;;;;3.60;1.90;;;14.30;97.30;;;;;;4999654;28;20212;-68
2023/09/14 08:05:00;;;;;;;0.90;0.80;;;14.30;97.30;;;;;;5005258;28;20946;-69
2023/09/14 08:07:27;;;;;;;1.53;1.37;;;14.40;97.30;;;;;;5010031;28;20215;-68
2023/09/14 08:09:52;;;;;;;1.20;1.10;;;14.40;97.30;;;;;;4999458;28;20232;-68
2023/09/14 08:12:18;;;;;;;2.80;1.07;;;14.40;97.30;;;;;;4992233;28;20437;-69
2023/09/14 08:14:43;;;;;;;1.10;1.00;;;14.50;97.30;;;;;;4998698;28;20393;-68
2023/09/14 08:17:11;;;;;;;2.40;1.60;;;14.60;97.30;;;;;;4991811;28;20189;-69
2023/09/14 08:19:36;;;;;;;3.03;1.40;;;14.60;97.30;;;;;;4991098;28;20178;-69
2023/09/14 08:22:03;;;;;;;2.67;1.80;;;14.70;97.30;;;;;;4989689;28;20495;-69
2023/09/14 08:24:29;;;;;;;3.33;1.80;;;14.70;97.30;;;;;;4991245;28;20170;-69
2023/09/14 08:26:55;;;;;;;1.73;1.63;;;14.80;97.30;;;;;;4990015;28;20436;-68
2023/09/14 08:29:21;;;;;;;1.17;1.07;;;14.80;97.30;;;;;;4997691;28;20481;-69
2023/09/14 08:31:49;;;;;;;1.33;1.27;;;14.90;97.30;;;;;;5002381;28;20188;-68
2023/09/14 08:34:14;;;;;;;1.23;1.13;;;14.90;97.30;;;;;;4993923;28;20667;-68
2023/09/14 08:36:40;;;;;;;6.97;2.60;;;14.90;97.30;;;;;;4996943;28;21039;-68
2023/09/14 08:39:05;;;;;;;2.07;1.87;;;14.90;97.30;;;;;;4994511;28;20561;-68
2023/09/14 08:41:40;;;;;;;1.33;1.23;;;15.00;97.30;;;;;;4991713;28;20205;-69
2023/09/14 08:44:08;;;;;;;25.33;2.37;;;15.00;97.30;;;;;;4994462;28;20193;-70
2023/09/14 08:46:35;;;;;;;1.20;1.10;;;15.00;97.30;;;;;;5006327;28;20432;-69
2023/09/14 08:49:03;;;;;;;1.10;1.00;;;15.10;97.30;;;;;;4998312;28;20460;-69
2023/09/14 08:51:32;;;;;;;4.60;1.97;;;15.10;97.30;;;;;;5008869;28;20436;-68
2023/09/14 08:53:59;;;;;;;10.40;1.83;;;15.20;97.30;;;;;;5008754;28;20443;-68
2023/09/14 08:56:25;;;;;;;2.30;1.30;;;15.20;97.30;;;;;;5001621;28;20453;-68
2023/09/14 08:58:52;;;;;;;1.80;1.70;;;15.30;97.30;;;;;;4998847;28;20428;-68
2023/09/14 09:01:18;;;;;;;1.10;1.03;;;15.30;97.30;;;;;;5004722;28;20452;-68
2023/09/14 09:03:44;;;;;;;1.33;1.23;;;15.40;97.30;;;;;;4989711;28;20436;-69
2023/09/14 09:06:10;;;;;;;1.80;1.47;;;15.50;97.30;;;;;;5001826;28;20436;-68
2023/09/14 09:08:37;;;;;;;1.47;1.37;;;15.50;97.30;;;;;;5001711;28;20756;-68
2023/09/14 09:11:03;;;;;;;1.70;1.30;;;15.60;97.30;;;;;;4996760;28;20433;-68
2023/09/14 09:13:33;;;;;;;2.00;1.63;;;15.60;97.30;;;;;;4989943;28;20432;-68
2023/09/14 09:15:59;;;;;;;3.47;2.20;;;15.70;97.30;;;;;;5010123;28;20416;-69
2023/09/14 09:18:25;;;;;;;8.53;2.70;;;15.80;97.30;;;;;;5008630;28;20511;-68
2023/09/14 09:20:51;;;;;;;8.63;3.60;;;15.90;97.30;;;;;;5004992;28;20475;-68
2023/09/14 09:23:20;;;;;;;1.83;1.30;;;15.90;97.30;;;;;;5004305;28;20193;-69
2023/09/14 09:25:52;;;;;;;6.13;1.57;;;16.00;97.30;;;;;;4999138;28;20194;-68
2023/09/14 09:28:18;;;;;;;1.23;1.10;;;16.00;97.30;;;;;;5005372;28;20486;-68
2023/09/14 09:30:44;;;;;;;1.10;1.00;;;16.10;97.30;;;;;;4990659;28;20436;-69
2023/09/14 09:33:10;;;;;;;3.10;1.13;;;16.20;97.30;;;;;;4996187;28;20515;-68
2023/09/14 09:35:36;;;;;;;1.37;1.27;;;16.20;97.30;;;;;;4999880;28;20181;-68
2023/09/14 09:38:16;;;;;;;1.57;1.50;;;16.30;97.30;;;;;;5001417;28;20424;-68
2023/09/14 09:40:44;;;;;;;1.77;1.10;;;16.30;97.30;;;;;;5006507;28;20551;-69
2023/09/14 09:43:14;;;;;;;1.20;1.10;;;16.20;97.30;;;;;;4998044;28;20924;-68
2023/09/14 09:45:43;;;;;;;1.77;1.13;;;16.20;97.30;;;;;;4997670;28;20495;-68
2023/09/14 09:48:10;;;;;;;1.43;1.00;;;16.30;97.30;;;;;;4997875;28;20819;-68
2023/09/14 09:50:35;;;;;;;1.07;1.00;;;16.40;97.30;;;;;;4989352;28;20437;-68
2023/09/14 09:53:02;;;;;;;1.20;1.10;;;16.60;97.30;;;;;;5002872;28;20428;-68
2023/09/14 09:55:32;;;;;;;2.17;1.40;;;16.70;97.30;;;;;;4995036;28;20205;-68
2023/09/14 09:57:59;;;;;;;2.63;1.40;;;16.90;97.30;;;;;;4988345;28;20467;-68
2023/09/14 10:00:31;;;;;;;2.00;1.20;;;16.90;97.30;;;;;;4994977;28;20482;-68
2023/09/14 10:02:57;;;;;;;1.00;0.90;;;17.00;97.30;;;;;;4988115;28;20477;-68
2023/09/14 10:05:40;;;;;;;1.10;1.10;;;17.00;97.30;;;;;;4989467;28;20417;-68
2023/09/14 10:08:14;;;;;;;3.03;1.13;;;17.10;97.30;;;;;;4989362;28;20904;-69
2023/09/14 10:10:41;;;;;;;1.27;1.13;;;17.10;97.30;;;;;;4998960;28;20902;-69
2023/09/14 10:13:08;;;;;;;1.30;1.20;;;17.10;97.30;;;;;;5003863;28;20419;-68
2023/09/14 10:15:36;;;;;;;1.67;1.57;;;17.00;97.30;;;;;;5038634;23;20545;-85
2023/09/14 10:18:03;;;;;;;2.50;1.83;;;17.00;97.30;;;;;;5012583;28;20950;-80
2023/09/14 10:20:29;;;;;;;1.20;1.10;;;17.00;97.30;;;;;;5012827;28;20507;-82
2023/09/14 10:22:56;;;;;;;1.00;0.90;;;17.00;97.30;;;;;;5005122;28;20478;-82
2023/09/14 10:25:21;;;;;;;1.07;0.97;;;17.00;97.30;;;;;;5012366;28;20447;-82
2023/09/14 10:27:47;;;;;;;2.27;1.70;;;17.10;97.30;;;;;;5012817;28;20837;-85
2023/09/14 10:30:18;;;;;;;0.90;0.80;;;17.10;97.30;;;;;;5013140;28;20658;-82
2023/09/14 10:32:48;;;;;;;1.97;1.10;;;17.10;97.30;;;;;;5014022;28;20177;-85
2023/09/14 10:35:14;;;;;;;1.10;1.00;;;17.10;97.30;;;;;;5013830;28;20822;-82
2023/09/14 10:37:44;;;;;;;1.20;1.10;;;17.10;97.30;;;;;;5012984;28;20432;-82
2023/09/14 10:40:12;;;;;;;1.20;1.00;;;17.20;97.30;;;;;;5013239;28;20188;-84
2023/09/14 10:42:39;;;;;;;1.90;1.37;;;17.20;97.30;;;;;;5014320;28;20471;-82
2023/09/14 10:45:05;;;;;;;1.00;0.90;;;17.30;97.30;;;;;;5013287;28;20443;-82
2023/09/14 10:47:36;;;;;;;1.13;1.03;;;17.30;97.30;;;;;;5013364;28;20510;-83
2023/09/14 10:50:08;;;;;;;1.33;1.23;;;17.40;97.30;;;;;;5013544;28;20424;-85
2023/09/14 10:52:34;;;;;;;1.00;0.80;;;17.40;97.30;;;;;;5017616;28;20427;-82
2023/09/14 10:55:00;;;;;;;1.00;0.90;;;17.50;97.30;;;;;;5016364;28;20467;-83
2023/09/14 10:57:28;;;;;;;1.07;0.97;;;17.70;97.30;;;;;;5016781;28;20173;-84
2023/09/14 10:59:57;;;;;;;1.80;1.40;;;17.80;97.30;;;;;;5016669;28;20466;-82
2023/09/14 11:02:43;;;;;;;0.93;0.93;;;18.00;97.30;;;;;;5018166;28;20935;-81
2023/09/14 11:05:14;;;;;;;2.27;2.07;;;18.20;97.30;;;;;;5010617;28;20467;-85
2023/09/14 11:07:41;;;;;;;3.63;1.37;;;18.20;97.30;;;;;;5016627;28;20455;-82
2023/09/14 11:10:07;;;;;;;1.73;1.20;;;18.20;97.30;;;;;;5024423;28;20436;-81
2023/09/14 11:12:33;;;;;;;1.00;0.90;;;18.30;97.30;;;;;;5016871;28;20482;-82
2023/09/14 11:15:22;;;;;;;1.10;1.00;;;18.30;97.30;;;;;;5016395;28;20468;-84
2023/09/14 11:17:51;;;;;;;1.00;0.90;;;18.40;97.30;;;;;;5016771;28;20189;-82
2023/09/14 11:20:20;;;;;;;1.67;1.57;;;18.40;96.10;;;;;;5017619;28;20420;-81
2023/09/14 11:22:50;;;;;;;1.10;1.00;;;18.50;96.10;;;;;;5017480;28;20459;-85
2023/09/14 11:25:29;;;;;;;1.00;0.90;;;18.60;96.20;;;;;;5016653;28;20446;-85
2023/09/14 11:27:56;;;;;;;2.00;0.90;;;18.80;96.60;;;;;;5016149;28;20451;-82
2023/09/14 11:30:24;;;;;;;1.03;0.97;;;18.90;97.00;;;;;;5016752;28;20489;-84
2023/09/14 11:32:50;;;;;;;1.43;1.20;;;19.10;97.10;;;;;;5016964;28;20424;-84
2023/09/14 11:35:15;;;;;;;3.70;1.57;;;19.30;96.90;;;;;;5017082;28;20813;-85
2023/09/14 11:37:41;;;;;;;1.30;1.23;;;19.40;95.00;;;;;;5017442;28;20185;-85
2023/09/14 11:40:16;;;;;;;1.80;1.37;;;19.40;94.10;;;;;;5017316;28;20288;-85
2023/09/14 11:43:06;;;;;;;3.47;1.27;;;19.40;93.50;;;;;;5017872;28;20188;-85
2023/09/14 11:45:37;;;;;;;0.90;0.80;;;19.20;93.90;;;;;;5018444;28;20509;-84
2023/09/14 11:48:03;;;;;;;1.00;1.00;;;19.00;94.20;;;;;;5018128;28;20518;-85
2023/09/14 11:50:29;;;;;;;1.10;1.00;;;18.90;94.10;;;;;;5023933;28;20427;-84
2023/09/14 11:52:57;;;;;;;1.73;1.03;;;18.70;94.60;;;;;;5014937;28;20503;-85
2023/09/14 11:55:23;;;;;;;1.23;1.13;;;18.60;95.00;;;;;;5015832;28;20827;-85
2023/09/14 11:57:49;;;;;;;1.53;0.90;;;18.60;95.10;;;;;;5015372;28;20507;-85
2023/09/14 12:00:15;;;;;;;1.23;1.13;;;18.50;95.00;;;;;;5015592;28;20247;-85
2023/09/14 12:02:41;;;;;;;1.20;1.10;;;18.50;95.00;;;;;;5013839;28;20212;-84
2023/09/14 12:05:07;;;;;;;1.20;1.00;;;18.50;95.30;;;;;;5015443;28;20945;-82
2023/09/14 12:07:33;;;;;;;1.97;1.60;;;18.50;94.90;;;;;;5014441;28;20185;-85
2023/09/14 12:09:59;;;;;;;9.90;2.07;;;18.50;94.70;;;;;;5015960;28;20428;-82
2023/09/14 12:12:30;;;;;;;2.83;1.30;;;18.40;94.80;;;;;;5015525;28;20192;-85
2023/09/14 12:15:00;;;;;;;2.50;2.00;;;18.50;94.70;;;;;;5014245;28;20233;-85
2023/09/14 12:17:27;;;;;;;1.03;0.93;;;18.50;94.90;;;;;;5014210;28;20531;-85
2023/09/14 12:19:55;;;;;;;1.20;1.10;;;18.50;94.30;;;;;;5014498;28;20509;-83
2023/09/14 12:22:23;;;;;;;1.30;1.20;;;18.50;94.30;;;;;;5015758;28;20798;-84
2023/09/14 12:24:50;;;;;;;7.60;1.57;;;18.60;94.90;;;;;;5014182;28;20444;-85
2023/09/14 12:27:17;;;;;;;1.13;1.03;;;18.70;95.70;;;;;;5014998;28;20424;-85
2023/09/14 12:29:44;;;;;;;1.20;1.17;;;18.70;95.80;;;;;;5014459;28;20412;-84
2023/09/14 12:32:12;;;;;;;0.90;0.80;;;18.70;96.50;;;;;;5014895;28;20780;-85
2023/09/14 12:34:38;;;;;;;1.00;0.90;;;18.80;95.50;;;;;;5014625;28;20444;-84
2023/09/14 12:37:04;;;;;;;1.07;0.97;;;18.80;95.50;;;;;;5014325;28;20420;-84
2023/09/14 12:39:29;;;;;;;2.30;1.13;;;18.90;96.70;;;;;;5015460;28;20416;-84
2023/09/14 12:41:57;;;;;;;1.27;1.17;;;18.90;96.80;;;;;;5013744;28;20426;-84
2023/09/14 12:44:23;;;;;;;2.00;1.03;;;19.00;96.50;;;;;;5014844;28;20240;-84
2023/09/14 12:46:53;;;;;;;2.03;1.37;;;19.20;97.30;;;;;;5013848;28;20466;-84
2023/09/14 12:49:19;;;;;;;3.17;1.20;;;19.60;97.30;;;;;;5013468;28;20825;-84
2023/09/14 12:51:48;;;;;;;1.27;1.27;;;19.90;97.00;;;;;;5013132;28;20417;-84
2023/09/14 12:54:17;;;;;;;1.30;1.20;;;20.30;96.00;;;;;;5013555;28;20231;-84
2023/09/14 12:56:44;;;;;;;0.93;0.83;;;20.60;96.20;;;;;;5013932;28;20423;-83
2023/09/14 12:59:10;;;;;;;4.80;1.80;;;20.70;94.70;;;;;;5013446;28;20503;-84
2023/09/14 13:01:39;;;;;;;1.10;1.03;;;20.70;93.60;;;;;;5012967;28;20420;-84
2023/09/14 13:04:05;;;;;;;1.20;1.10;;;20.60;94.00;;;;;;5013274;28;20444;-84
2023/09/14 13:06:35;;;;;;;1.90;1.30;;;20.50;93.40;;;;;;5013602;28;20691;-85
2023/09/14 13:09:07;;;;;;;1.03;0.93;;;20.60;94.00;;;;;;5013626;28;21088;-84
2023/09/14 13:11:34;;;;;;;0.90;0.80;;;20.70;93.20;;;;;;5013414;28;20841;-84
2023/09/14 13:14:00;;;;;;;1.83;1.40;;;20.70;92.90;;;;;;5013252;28;20479;-84
2023/09/14 13:16:27;;;;;;;2.07;1.93;;;20.70;91.90;;;;;;5013488;28;20412;-84
2023/09/14 13:18:53;;;;;;;1.30;1.20;;;20.70;92.50;;;;;;5013267;28;20424;-84
2023/09/14 13:21:21;;;;;;;1.13;1.03;;;20.50;92.00;;;;;;5013634;28;20431;-84
2023/09/14 13:23:46;;;;;;;1.10;1.00;;;20.30;89.60;;;;;;5013635;28;20440;-85
2023/09/14 13:26:12;;;;;;;1.30;1.17;;;20.10;89.50;;;;;;5013574;28;21027;-84
2023/09/14 13:28:38;;;;;;;1.00;0.90;;;19.80;90.00;;;;;;5013744;28;20593;-84
2023/09/14 13:31:04;;;;;;;1.10;0.90;;;19.70;90.60;;;;;;5013586;28;20212;-84
2023/09/14 13:33:30;;;;;;;3.50;2.03;;;19.60;89.90;;;;;;5015541;28;20386;-84
2023/09/14 13:36:00;;;;;;;1.10;1.10;;;19.50;90.60;;;;;;5016772;28;20803;-84
2023/09/14 13:38:27;;;;;;;1.43;1.20;;;19.40;90.70;;;;;;5019762;28;20264;-84
2023/09/14 13:40:52;;;;;;;1.30;1.20;;;19.40;91.20;;;;;;5013362;28;20459;-84
2023/09/14 13:43:18;;;;;;;0.90;0.80;;;19.40;90.50;;;;;;5012141;28;20415;-85
2023/09/14 13:45:43;;;;;;;1.33;0.93;;;19.40;90.90;;;;;;5013303;28;20270;-84
2023/09/14 13:48:09;;;;;;;1.47;1.43;;;19.40;89.70;;;;;;5012786;28;20250;-84
2023/09/14 13:50:34;;;;;;;1.23;0.97;;;19.40;89.50;;;;;;5012715;28;20242;-84
2023/09/14 13:53:00;;;;;;;1.67;1.60;;;19.50;89.90;;;;;;5005396;28;20193;-85
2023/09/14 13:55:25;;;;;;;1.30;1.20;;;19.50;89.40;;;;;;5011860;28;20201;-85
2023/09/14 13:57:51;;;;;;;1.10;1.00;;;19.50;89.30;;;;;;5012072;28;20185;-85
2023/09/14 14:00:18;;;;;;;1.50;1.40;;;19.50;89.20;;;;;;5010599;28;20200;-86
2023/09/14 14:02:55;;;;;;;1.50;1.27;;;19.50;89.40;;;;;;5010280;28;20271;-85
2023/09/14 14:05:21;;;;;;;1.10;0.97;;;19.60;90.60;;;;;;5003221;28;20490;-84
2023/09/14 14:07:46;;;;;;;2.60;1.00;;;19.60;91.70;;;;;;5011222;28;20462;-84
2023/09/14 14:10:12;;;;;;;2.50;1.00;;;19.60;92.20;;;;;;5010068;28;20797;-85
2023/09/14 14:12:38;;;;;;;1.10;1.00;;;19.70;92.50;;;;;;5010407;28;20185;-85
2023/09/14 14:15:04;;;;;;;1.20;1.03;;;19.80;92.70;;;;;;5010175;28;20260;-84
2023/09/14 14:17:30;;;;;;;1.33;1.00;;;20.10;93.90;;;;;;5011441;28;20272;-84
2023/09/14 14:19:57;;;;;;;1.20;1.10;;;20.40;93.90;;;;;;5011448;28;20495;-84
2023/09/14 14:22:22;;;;;;;1.20;1.10;;;20.70;93.60;;;;;;5012226;28;20177;-84
2023/09/14 14:24:48;;;;;;;1.63;0.90;;;21.00;92.30;;;;;;5011981;28;20489;-84
2023/09/14 14:27:15;;;;;;;1.20;1.10;;;21.30;92.30;;;;;;5011629;28;20192;-83
2023/09/14 14:29:43;;;;;;;1.13;1.03;;;21.50;90.60;;;;;;5010639;28;20231;-86
2023/09/14 14:32:09;;;;;;;1.73;1.23;;;21.50;90.30;;;;;;5012173;28;20424;-83
2023/09/14 14:34:34;;;;;;;5.37;1.73;;;21.40;89.10;;;;;;5011973;28;20451;-84
2023/09/14 14:37:01;;;;;;;3.70;1.90;;;21.30;88.40;;;;;;5012368;28;20675;-86
2023/09/14 14:39:27;;;;;;;1.00;0.90;;;21.20;88.90;;;;;;5012688;28;20181;-84
2023/09/14 14:41:53;;;;;;;4.20;1.93;;;21.10;89.50;;;;;;5011660;28;20506;-83
2023/09/14 14:44:18;;;;;;;2.03;1.40;;;21.00;88.10;;;;;;5014118;28;20267;-83
2023/09/14 14:46:44;;;;;;;1.10;1.00;;;21.00;87.60;;;;;;5011520;28;20950;-83
2023/09/14 14:49:11;;;;;;;1.50;1.40;;;21.00;88.40;;;;;;5009365;28;20536;-84
2023/09/14 14:51:37;;;;;;;1.67;1.43;;;21.10;87.70;;;;;;5008202;28;20185;-84
2023/09/14 14:54:04;;;;;;;1.43;1.33;;;21.10;87.10;;;;;;5027111;28;20431;-83
2023/09/14 14:56:29;;;;;;;1.47;1.37;;;21.10;87.60;;;;;;5022213;28;20172;-83
2023/09/14 14:58:56;;;;;;;1.43;1.33;;;21.10;88.10;;;;;;5012593;28;20486;-84
2023/09/14 15:01:21;;;;;;;0.93;0.83;;;21.00;87.90;;;;;;5015846;28;20174;-84
2023/09/14 15:03:47;;;;;;;3.60;1.07;;;21.10;88.50;;;;;;5011517;28;20650;-83
2023/09/14 15:06:13;;;;;;;2.40;1.00;;;21.30;88.90;;;;;;5019319;28;20748;-83
2023/09/14 15:08:39;;;;;;;0.90;0.80;;;21.50;87.00;;;;;;5017335;28;20227;-85
2023/09/14 15:11:04;;;;;;;1.73;1.43;;;21.70;85.80;;;;;;5020237;28;20603;-85
2023/09/14 15:13:31;;;;;;;1.57;1.57;;;21.80;85.70;;;;;;5011502;28;20427;-82
2023/09/14 15:15:56;;;;;;;1.00;0.90;;;22.00;86.60;;;;;;5018048;28;20229;-86
2023/09/14 15:18:22;;;;;;;1.53;1.47;;;22.10;86.30;;;;;;5009502;28;20483;-84
2023/09/14 15:20:48;;;;;;;1.13;1.03;;;22.20;86.20;;;;;;5009447;28;20181;-85
2023/09/14 15:23:13;;;;;;;1.33;1.13;;;22.30;86.10;;;;;;5011205;28;20200;-85
2023/09/14 15:25:39;;;;;;;0.90;0.80;;;22.40;86.30;;;;;;5009783;28;20201;-85
2023/09/14 15:28:05;;;;;;;1.70;1.27;;;22.40;86.40;;;;;;5012639;28;20236;-84
2023/09/14 15:30:31;;;;;;;1.37;1.03;;;22.40;86.50;;;;;;5009949;28;20681;-85
2023/09/14 15:32:56;;;;;;;1.30;1.10;;;22.50;85.30;;;;;;5008879;28;20416;-84
2023/09/14 15:35:22;;;;;;;1.37;1.20;;;22.50;84.40;;;;;;5008900;28;20235;-84
2023/09/14 15:37:48;;;;;;;0.97;0.93;;;22.50;84.70;;;;;;5018039;28;20241;-88
2023/09/14 15:40:13;;;;;;;0.97;0.90;;;22.50;84.20;;;;;;5015392;28;20200;-83
2023/09/14 15:42:39;;;;;;;1.93;1.73;;;22.60;84.10;;;;;;5016009;28;20750;-84
2023/09/14 15:45:06;;;;;;;1.20;1.10;;;22.60;83.30;;;;;;5017443;28;20201;-85
2023/09/14 15:47:31;;;;;;;1.50;1.30;;;22.60;83.70;;;;;;5026050;28;20180;-86
2023/09/14 15:49:57;;;;;;;1.20;1.10;;;22.70;84.00;;;;;;5025028;28;20522;-86
2023/09/14 15:52:23;;;;;;;1.00;0.90;;;22.80;83.80;;;;;;5011999;28;20603;-85
2023/09/14 15:54:48;;;;;;;4.60;1.20;;;22.80;82.30;;;;;;5011000;28;20204;-84
2023/09/14 15:57:14;;;;;;;1.00;0.90;;;22.70;81.40;;;;;;5012224;28;20181;-85
2023/09/14 15:59:39;;;;;;;1.80;1.10;;;22.60;81.30;;;;;;5012258;28;20643;-86
2023/09/14 16:02:05;;;;;;;2.03;1.07;;;22.50;81.50;;;;;;5016125;28;20212;-85
2023/09/14 16:04:31;;;;;;;1.43;1.30;;;22.50;81.50;;;;;;5013760;28;20236;-87
2023/09/14 16:06:57;;;;;;;1.77;1.37;;;22.40;82.00;;;;;;5011490;28;20954;-86
2023/09/14 16:09:23;;;;;;;1.53;1.47;;;22.40;83.00;;;;;;5011817;28;20690;-85
2023/09/14 16:11:49;;;;;;;1.17;1.07;;;22.30;83.20;;;;;;5008967;28;20178;-85
2023/09/14 16:14:15;;;;;;;1.17;1.00;;;22.30;83.50;;;;;;5020876;23;20508;-67
2023/09/14 16:16:42;;;;;;;1.03;0.93;;;22.30;83.80;;;;;;4986342;28;20455;-67
2023/09/14 16:19:08;;;;;;;1.30;1.20;;;22.30;83.60;;;;;;4980346;28;20438;-67
2023/09/14 16:21:34;;;;;;;2.33;1.70;;;22.30;83.30;;;;;;4996620;28;20487;-66
2023/09/14 16:34:21;;;;;;;1.20;1.10;;;22.10;84.20;;;;;;4987946;23;20484;-91
2023/09/14 16:36:46;;;;;;;3.10;1.93;;;22.10;84.90;;;;;;4972273;28;20430;-91
2023/09/14 16:39:14;;;;;;;1.23;1.13;;;22.10;85.80;;;;;;4972947;28;20179;-91
2023/09/14 16:41:50;;;;;;;;;;;;;;;;;;;;;
2023/09/14 16:44:37;;;;;;;1.93;1.87;;;22.10;87.20;;;;;;4968094;28;20433;-92
2023/09/14 16:47:36;;;;;;;2.30;1.47;;;22.00;87.90;;;;;;4964385;28;20807;-90
2023/09/14 16:50:10;;;;;;;1.47;0.90;;;21.90;88.40;;;;;;4964735;28;20442;-91
2023/09/14 16:52:36;;;;;;;1.40;1.37;;;21.70;88.60;;;;;;4956618;23;20871;-77
2023/09/14 16:55:04;;;;;;;0.97;0.80;;;21.60;89.10;;;;;;5004375;28;20486;-77
2023/09/14 16:57:30;;;;;;;3.07;1.63;;;21.30;89.70;;;;;;5005345;28;20638;-78